ASA1461 YSSY-YPPH
Flight info
| Callsign | ASA1461 |
|---|---|
| Flight time | N/A |
| Altitude | 34000 |
| Route | TESAT A576 KADOM H44 AD Q33 LOTGI/N0439F360 Q33 ESP Q158 PH |
| Aircraft | B738/M-SDE2E3FGHIRWXY/LB1 |
Departure
| Time | 2026-05-08 07:11 |
|---|---|
| Airport | Sydney Kingsford Smith International Airport (YSSY) |
Arrival
| Time | N/A |
|---|---|
| Airport | Perth International Airport (YPPH) |
| Time | Latitude | Longitude | Altitude | Speed | Heading |
|---|---|---|---|---|---|
| 2026-05-08 06:37 | -33.93676 | 151.17976 | 18 ft | 0 kts | 280° |
| 2026-05-08 07:04 | -33.93677 | 151.17986 | 18 ft | 2 kts | 280° |
| 2026-05-08 07:04 | -33.93679 | 151.18004 | 19 ft | 2 kts | 280° |
| 2026-05-08 07:04 | -33.93682 | 151.18022 | 19 ft | 2 kts | 280° |
| 2026-05-08 07:04 | -33.93684 | 151.18039 | 20 ft | 1 kts | 280° |
| 2026-05-08 07:05 | -33.93686 | 151.18047 | 20 ft | 1 kts | 252° |
| 2026-05-08 07:05 | -33.93679 | 151.18056 | 20 ft | 1 kts | 195° |
| 2026-05-08 07:05 | -33.93673 | 151.18056 | 20 ft | 0 kts | 158° |
| 2026-05-08 07:05 | -33.93667 | 151.18054 | 20 ft | 0 kts | 166° |
| 2026-05-08 07:08 | -33.93668 | 151.18054 | 20 ft | 1 kts | 166° |
| 2026-05-08 07:08 | -33.93698 | 151.18063 | 20 ft | 7 kts | 167° |
| 2026-05-08 07:08 | -33.93753 | 151.18092 | 19 ft | 10 kts | 124° |
| 2026-05-08 07:08 | -33.93744 | 151.18190 | 22 ft | 12 kts | 73° |
| 2026-05-08 07:09 | -33.93719 | 151.18297 | 26 ft | 13 kts | 74° |
| 2026-05-08 07:09 | -33.93690 | 151.18417 | 27 ft | 15 kts | 73° |
| 2026-05-08 07:09 | -33.93660 | 151.18547 | 29 ft | 16 kts | 74° |
| 2026-05-08 07:09 | -33.93631 | 151.18669 | 30 ft | 15 kts | 74° |
| 2026-05-08 07:10 | -33.93612 | 151.18785 | 29 ft | 11 kts | 121° |
| 2026-05-08 07:10 | -33.93686 | 151.18820 | 29 ft | 10 kts | 166° |
| 2026-05-08 07:10 | -33.93790 | 151.18810 | 29 ft | 23 kts | 233° |
| 2026-05-08 07:10 | -33.93896 | 151.18391 | 26 ft | 96 kts | 255° |
| 2026-05-08 07:11 | -33.94147 | 151.17308 | 153 ft | 162 kts | 255° |
| 2026-05-08 07:11 | -33.94453 | 151.15973 | 1008 ft | 181 kts | 257° |
| 2026-05-08 07:11 | -33.94629 | 151.14409 | 1918 ft | 197 kts | 270° |
| 2026-05-08 07:11 | -33.94260 | 151.12801 | 2597 ft | 219 kts | 299° |
| 2026-05-08 07:12 | -33.93190 | 151.11388 | 3412 ft | 240 kts | 313° |
| 2026-05-08 07:12 | -33.91949 | 151.09972 | 4326 ft | 254 kts | 312° |
| 2026-05-08 07:12 | -33.90823 | 151.08304 | 4953 ft | 263 kts | 294° |
| 2026-05-08 07:12 | -33.90406 | 151.06210 | 4998 ft | 255 kts | 271° |
| 2026-05-08 07:13 | -33.90232 | 151.04077 | 4993 ft | 255 kts | 279° |
| 2026-05-08 07:13 | -33.89782 | 151.02016 | 4996 ft | 256 kts | 284° |
| 2026-05-08 07:13 | -33.89282 | 150.99970 | 4996 ft | 256 kts | 284° |
| 2026-05-08 07:13 | -33.88772 | 150.97920 | 4997 ft | 256 kts | 284° |
| 2026-05-08 07:14 | -33.88249 | 150.95859 | 4999 ft | 257 kts | 285° |
| 2026-05-08 07:14 | -33.87702 | 150.93718 | 5459 ft | 281 kts | 285° |
| 2026-05-08 07:14 | -33.87141 | 150.91544 | 6966 ft | 269 kts | 285° |
| 2026-05-08 07:14 | -33.86594 | 150.89418 | 8053 ft | 272 kts | 284° |
| 2026-05-08 07:15 | -33.86035 | 150.87251 | 9121 ft | 275 kts | 284° |
| 2026-05-08 07:15 | -33.85475 | 150.85080 | 10129 ft | 278 kts | 284° |
| 2026-05-08 07:15 | -33.84890 | 150.82809 | 10668 ft | 299 kts | 285° |
| 2026-05-08 07:15 | -33.84254 | 150.80348 | 11348 ft | 313 kts | 285° |
| 2026-05-08 07:16 | -33.83602 | 150.77838 | 12209 ft | 319 kts | 285° |
| 2026-05-08 07:16 | -33.82944 | 150.75305 | 13128 ft | 322 kts | 285° |
| 2026-05-08 07:16 | -33.82281 | 150.72749 | 13968 ft | 325 kts | 284° |
| 2026-05-08 07:16 | -33.81834 | 150.71027 | 14536 ft | 327 kts | 284° |
| 2026-05-08 07:17 | -33.80931 | 150.67555 | 15638 ft | 330 kts | 284° |
| 2026-05-08 07:17 | -33.80244 | 150.64916 | 16436 ft | 332 kts | 284° |
| 2026-05-08 07:17 | -33.79552 | 150.62260 | 17207 ft | 334 kts | 284° |
| 2026-05-08 07:17 | -33.78866 | 150.59630 | 17943 ft | 336 kts | 284° |
| 2026-05-08 07:18 | -33.78167 | 150.56950 | 18661 ft | 339 kts | 284° |
| 2026-05-08 07:18 | -33.77456 | 150.54231 | 19364 ft | 341 kts | 284° |
| 2026-05-08 07:18 | -33.76750 | 150.51531 | 20032 ft | 343 kts | 284° |
| 2026-05-08 07:18 | -33.76034 | 150.48796 | 20684 ft | 345 kts | 284° |
| 2026-05-08 07:19 | -33.75312 | 150.46040 | 21315 ft | 347 kts | 284° |
| 2026-05-08 07:19 | -33.74595 | 150.43309 | 21917 ft | 349 kts | 284° |
| 2026-05-08 07:19 | -33.73862 | 150.40520 | 22507 ft | 351 kts | 284° |
| 2026-05-08 07:19 | -33.73125 | 150.37717 | 23075 ft | 353 kts | 284° |
| 2026-05-08 07:20 | -33.72392 | 150.34932 | 23621 ft | 354 kts | 284° |
| 2026-05-08 07:20 | -33.71710 | 150.32066 | 24151 ft | 355 kts | 279° |
| 2026-05-08 07:20 | -33.71354 | 150.29167 | 24667 ft | 355 kts | 271° |
| 2026-05-08 07:20 | -33.71435 | 150.26209 | 25192 ft | 354 kts | 263° |
| 2026-05-08 07:21 | -33.71715 | 150.23305 | 25724 ft | 355 kts | 263° |
| 2026-05-08 07:21 | -33.71973 | 150.20326 | 26196 ft | 357 kts | 264° |
| 2026-05-08 07:21 | -33.72211 | 150.17374 | 26658 ft | 359 kts | 264° |
| 2026-05-08 07:21 | -33.72461 | 150.14381 | 27107 ft | 360 kts | 264° |
| 2026-05-08 07:22 | -33.72715 | 150.11417 | 27533 ft | 362 kts | 264° |
| 2026-05-08 07:22 | -33.72971 | 150.08423 | 27983 ft | 363 kts | 264° |
| 2026-05-08 07:22 | -33.73228 | 150.05418 | 28666 ft | 357 kts | 264° |
| 2026-05-08 07:22 | -33.73479 | 150.02473 | 29234 ft | 354 kts | 264° |
| 2026-05-08 07:23 | -33.73726 | 149.99580 | 29753 ft | 352 kts | 264° |
| 2026-05-08 07:23 | -33.73975 | 149.96663 | 30294 ft | 349 kts | 264° |
| 2026-05-08 07:23 | -33.74219 | 149.93800 | 30786 ft | 346 kts | 264° |
| 2026-05-08 07:23 | -33.74461 | 149.90956 | 31272 ft | 344 kts | 264° |
| 2026-05-08 07:24 | -33.74704 | 149.88089 | 31746 ft | 342 kts | 264° |
| 2026-05-08 07:24 | -33.74941 | 149.85281 | 32203 ft | 340 kts | 264° |
| 2026-05-08 07:24 | -33.75178 | 149.82472 | 32645 ft | 338 kts | 264° |
| 2026-05-08 07:24 | -33.75413 | 149.79680 | 33077 ft | 336 kts | 264° |
| 2026-05-08 07:25 | -33.75646 | 149.76906 | 33494 ft | 334 kts | 264° |
| 2026-05-08 07:25 | -33.75878 | 149.74135 | 33905 ft | 332 kts | 264° |
| 2026-05-08 07:25 | -33.76340 | 149.68588 | 34100 ft | 335 kts | 264° |
| 2026-05-08 07:26 | -33.76568 | 149.65854 | 34101 ft | 332 kts | 264° |
| 2026-05-08 07:26 | -33.77023 | 149.60347 | 34101 ft | 330 kts | 264° |
| 2026-05-08 07:27 | -33.77474 | 149.54868 | 34101 ft | 331 kts | 264° |
| 2026-05-08 07:27 | -33.77925 | 149.49353 | 34101 ft | 331 kts | 264° |
| 2026-05-08 07:28 | -33.78370 | 149.43881 | 34102 ft | 331 kts | 264° |
| 2026-05-08 07:28 | -33.78816 | 149.38367 | 34103 ft | 331 kts | 264° |
| 2026-05-08 07:29 | -33.79256 | 149.32883 | 34105 ft | 331 kts | 265° |
| 2026-05-08 07:29 | -33.79696 | 149.27390 | 34107 ft | 331 kts | 265° |
| 2026-05-08 07:30 | -33.80134 | 149.21884 | 34112 ft | 331 kts | 265° |
| 2026-05-08 07:30 | -33.80567 | 149.16408 | 34117 ft | 331 kts | 265° |
| 2026-05-08 07:31 | -33.81000 | 149.10902 | 34122 ft | 331 kts | 265° |
| 2026-05-08 07:31 | -33.81427 | 149.05434 | 34126 ft | 330 kts | 265° |
| 2026-05-08 07:32 | -33.81855 | 148.99937 | 34140 ft | 330 kts | 265° |
| 2026-05-08 07:32 | -33.82276 | 148.94478 | 34158 ft | 329 kts | 265° |
| 2026-05-08 07:33 | -33.82697 | 148.89015 | 34175 ft | 329 kts | 265° |
| 2026-05-08 07:33 | -33.83113 | 148.83562 | 34190 ft | 328 kts | 266° |
| 2026-05-08 07:34 | -33.83528 | 148.78091 | 34200 ft | 328 kts | 266° |
| 2026-05-08 07:34 | -33.83938 | 148.72658 | 34196 ft | 328 kts | 266° |
| 2026-05-08 07:35 | -33.84347 | 148.67203 | 34193 ft | 328 kts | 266° |
| 2026-05-08 07:35 | -33.85034 | 148.61793 | 34188 ft | 329 kts | 260° |
| 2026-05-08 07:36 | -33.85984 | 148.56406 | 34196 ft | 329 kts | 261° |
| 2026-05-08 07:36 | -33.86871 | 148.51036 | 34190 ft | 329 kts | 261° |
| 2026-05-08 07:37 | -33.87771 | 148.45633 | 34184 ft | 329 kts | 261° |
| 2026-05-08 07:37 | -33.88665 | 148.40231 | 34178 ft | 328 kts | 261° |
| 2026-05-08 07:38 | -33.89554 | 148.34850 | 34173 ft | 329 kts | 262° |
| 2026-05-08 07:38 | -33.90442 | 148.29460 | 34174 ft | 329 kts | 262° |
| 2026-05-08 07:39 | -33.91324 | 148.24089 | 34191 ft | 328 kts | 262° |
| 2026-05-08 07:39 | -33.92206 | 148.18701 | 34211 ft | 328 kts | 262° |
| 2026-05-08 07:40 | -33.93086 | 148.13316 | 34231 ft | 328 kts | 262° |
| 2026-05-08 07:40 | -33.93959 | 148.07954 | 34248 ft | 328 kts | 262° |
| 2026-05-08 07:41 | -33.94835 | 148.02554 | 34245 ft | 328 kts | 262° |
| 2026-05-08 07:41 | -33.95706 | 147.97176 | 34239 ft | 328 kts | 262° |
| 2026-05-08 07:42 | -33.96575 | 147.91792 | 34233 ft | 328 kts | 262° |
| 2026-05-08 07:42 | -33.97438 | 147.86426 | 34227 ft | 328 kts | 262° |
| 2026-05-08 07:43 | -33.98016 | 147.82828 | 34223 ft | 328 kts | 262° |
| 2026-05-08 07:43 | -33.99018 | 147.76566 | 34216 ft | 328 kts | 262° |
| 2026-05-08 07:44 | -34.00018 | 147.70300 | 34210 ft | 328 kts | 262° |
| 2026-05-08 07:44 | -34.00877 | 147.64902 | 34204 ft | 328 kts | 262° |
| 2026-05-08 07:45 | -34.01734 | 147.59495 | 34198 ft | 328 kts | 262° |
| 2026-05-08 07:45 | -34.02586 | 147.54111 | 34192 ft | 328 kts | 262° |
| 2026-05-08 07:46 | -34.03433 | 147.48740 | 34186 ft | 327 kts | 262° |
| 2026-05-08 07:46 | -34.04274 | 147.43384 | 34181 ft | 327 kts | 262° |
| 2026-05-08 07:47 | -34.05120 | 147.37988 | 34175 ft | 327 kts | 262° |
| 2026-05-08 07:47 | -34.05964 | 147.32581 | 34180 ft | 327 kts | 262° |
| 2026-05-08 07:48 | -34.06801 | 147.27211 | 34197 ft | 327 kts | 262° |
| 2026-05-08 07:48 | -34.07636 | 147.21841 | 34217 ft | 327 kts | 262° |
| 2026-05-08 07:49 | -34.08472 | 147.16443 | 34238 ft | 327 kts | 262° |
| 2026-05-08 07:49 | -34.09299 | 147.11090 | 34255 ft | 327 kts | 262° |
| 2026-05-08 07:50 | -34.10128 | 147.05699 | 34249 ft | 328 kts | 262° |
| 2026-05-08 07:50 | -34.10959 | 147.00287 | 34244 ft | 328 kts | 263° |
| 2026-05-08 07:51 | -34.11784 | 146.94891 | 34238 ft | 328 kts | 263° |
| 2026-05-08 07:51 | -34.12609 | 146.89482 | 34233 ft | 328 kts | 263° |
| 2026-05-08 07:52 | -34.13430 | 146.84087 | 34227 ft | 328 kts | 263° |
| 2026-05-08 07:52 | -34.14251 | 146.78674 | 34222 ft | 328 kts | 263° |
| 2026-05-08 07:53 | -34.15067 | 146.73270 | 34216 ft | 328 kts | 263° |
| 2026-05-08 07:53 | -34.15886 | 146.67833 | 34210 ft | 328 kts | 263° |
| 2026-05-08 07:54 | -34.16698 | 146.62427 | 34207 ft | 328 kts | 263° |
| 2026-05-08 07:54 | -34.17505 | 146.57039 | 34216 ft | 328 kts | 263° |
| 2026-05-08 07:55 | -34.18315 | 146.51610 | 34227 ft | 328 kts | 263° |
| 2026-05-08 07:55 | -34.19119 | 146.46211 | 34241 ft | 328 kts | 263° |
| 2026-05-08 07:56 | -34.19922 | 146.40794 | 34258 ft | 328 kts | 263° |
| 2026-05-08 07:56 | -34.20728 | 146.35345 | 34263 ft | 328 kts | 263° |
| 2026-05-08 07:57 | -34.21527 | 146.29919 | 34263 ft | 328 kts | 263° |
| 2026-05-08 07:57 | -34.22318 | 146.24536 | 34263 ft | 327 kts | 263° |
| 2026-05-08 07:58 | -34.23111 | 146.19121 | 34263 ft | 327 kts | 263° |
| 2026-05-08 07:58 | -34.23899 | 146.13725 | 34263 ft | 327 kts | 263° |
| 2026-05-08 07:59 | -34.24688 | 146.08307 | 34259 ft | 328 kts | 263° |
| 2026-05-08 07:59 | -34.25415 | 146.02872 | 34254 ft | 327 kts | 265° |
| 2026-05-08 08:00 | -34.26071 | 145.97473 | 34250 ft | 327 kts | 264° |
| 2026-05-08 08:00 | -34.26746 | 145.92032 | 34245 ft | 327 kts | 265° |
| 2026-05-08 08:01 | -34.27412 | 145.86615 | 34250 ft | 327 kts | 264° |
| 2026-05-08 08:01 | -34.27966 | 145.82100 | 34257 ft | 327 kts | 264° |
| 2026-05-08 08:02 | -34.28740 | 145.75772 | 34269 ft | 327 kts | 264° |
| 2026-05-08 08:02 | -34.29402 | 145.70337 | 34282 ft | 327 kts | 264° |
| 2026-05-08 08:03 | -34.30062 | 145.64903 | 34290 ft | 327 kts | 264° |
| 2026-05-08 08:03 | -34.30717 | 145.59491 | 34290 ft | 326 kts | 264° |
| 2026-05-08 08:04 | -34.31366 | 145.54103 | 34290 ft | 326 kts | 264° |
| 2026-05-08 08:04 | -34.32017 | 145.48669 | 34290 ft | 326 kts | 264° |
| 2026-05-08 08:05 | -34.32667 | 145.43239 | 34290 ft | 326 kts | 264° |
| 2026-05-08 08:05 | -34.33311 | 145.37833 | 34290 ft | 326 kts | 264° |
| 2026-05-08 08:06 | -34.33847 | 145.33310 | 34290 ft | 326 kts | 265° |
| 2026-05-08 08:06 | -34.34595 | 145.26978 | 34290 ft | 326 kts | 265° |
| 2026-05-08 08:07 | -34.35235 | 145.21547 | 34290 ft | 326 kts | 265° |
| 2026-05-08 08:07 | -34.35867 | 145.16157 | 34290 ft | 326 kts | 265° |
| 2026-05-08 08:08 | -34.36500 | 145.10730 | 34290 ft | 325 kts | 265° |
| 2026-05-08 08:08 | -34.37128 | 145.05333 | 34290 ft | 324 kts | 265° |
| 2026-05-08 08:09 | -34.37755 | 144.99925 | 34290 ft | 324 kts | 266° |
| 2026-05-08 08:09 | -34.38375 | 144.94556 | 34290 ft | 323 kts | 266° |
| 2026-05-08 08:10 | -34.38992 | 144.89191 | 34290 ft | 323 kts | 266° |
| 2026-05-08 08:10 | -34.39605 | 144.83830 | 34290 ft | 323 kts | 266° |
| 2026-05-08 08:11 | -34.40218 | 144.78465 | 34290 ft | 323 kts | 266° |
| 2026-05-08 08:11 | -34.40832 | 144.73059 | 34290 ft | 323 kts | 266° |
| 2026-05-08 08:12 | -34.41438 | 144.67700 | 34290 ft | 323 kts | 266° |
| 2026-05-08 08:12 | -34.42046 | 144.62308 | 34290 ft | 323 kts | 266° |
| 2026-05-08 08:13 | -34.42647 | 144.56950 | 34290 ft | 323 kts | 266° |
| 2026-05-08 08:13 | -34.43247 | 144.51582 | 34290 ft | 323 kts | 266° |
| 2026-05-08 08:14 | -34.43848 | 144.46187 | 34290 ft | 323 kts | 266° |
| 2026-05-08 08:14 | -34.44442 | 144.40826 | 34290 ft | 323 kts | 266° |
| 2026-05-08 08:15 | -34.45036 | 144.35452 | 34290 ft | 322 kts | 266° |
| 2026-05-08 08:15 | -34.45628 | 144.30066 | 34290 ft | 322 kts | 266° |
| 2026-05-08 08:16 | -34.46217 | 144.24687 | 34290 ft | 322 kts | 266° |
| 2026-05-08 08:16 | -34.46801 | 144.19336 | 34290 ft | 322 kts | 266° |
| 2026-05-08 08:17 | -34.47386 | 144.13947 | 34290 ft | 322 kts | 266° |
| 2026-05-08 08:17 | -34.47965 | 144.08594 | 34290 ft | 322 kts | 266° |
| 2026-05-08 08:18 | -34.48545 | 144.03210 | 34290 ft | 322 kts | 266° |
| 2026-05-08 08:18 | -34.49122 | 143.97833 | 34290 ft | 322 kts | 266° |
| 2026-05-08 08:19 | -34.49696 | 143.92462 | 34290 ft | 322 kts | 266° |
| 2026-05-08 08:19 | -34.50265 | 143.87109 | 34290 ft | 322 kts | 266° |
| 2026-05-08 08:20 | -34.50834 | 143.81738 | 34290 ft | 322 kts | 266° |
| 2026-05-08 08:20 | -34.51402 | 143.76347 | 34290 ft | 322 kts | 266° |
| 2026-05-08 08:21 | -34.51964 | 143.71001 | 34290 ft | 321 kts | 266° |
| 2026-05-08 08:21 | -34.52525 | 143.65630 | 34290 ft | 321 kts | 266° |
| 2026-05-08 08:22 | -34.53086 | 143.60245 | 34290 ft | 321 kts | 266° |
| 2026-05-08 08:22 | -34.53639 | 143.54906 | 34290 ft | 321 kts | 266° |
| 2026-05-08 08:23 | -34.54193 | 143.49542 | 34290 ft | 321 kts | 266° |
| 2026-05-08 08:23 | -34.54745 | 143.44165 | 34290 ft | 321 kts | 266° |
| 2026-05-08 08:24 | -34.55296 | 143.38780 | 34290 ft | 321 kts | 266° |
| 2026-05-08 08:24 | -34.55840 | 143.33435 | 34290 ft | 322 kts | 266° |
| 2026-05-08 08:25 | -34.56387 | 143.28036 | 34290 ft | 321 kts | 266° |
| 2026-05-08 08:25 | -34.56930 | 143.22669 | 34290 ft | 321 kts | 266° |
| 2026-05-08 08:26 | -34.57469 | 143.17303 | 34290 ft | 321 kts | 266° |
| 2026-05-08 08:26 | -34.58005 | 143.11945 | 34290 ft | 321 kts | 266° |
| 2026-05-08 08:27 | -34.58540 | 143.06578 | 34290 ft | 320 kts | 266° |
| 2026-05-08 08:27 | -34.59069 | 143.01236 | 34290 ft | 320 kts | 267° |
| 2026-05-08 08:28 | -34.59597 | 142.95882 | 34290 ft | 320 kts | 267° |